Time;durP1;ratioP1;P1;durP2;ratioP2;P2;SDS_P1;SDS_P2;PMS_P1;PMS_P2;Temp;Humidity;BMP_temperature;BMP_pressure;BME280_temperature;BME280_humidity;BME280_pressure;Samples;Min_cycle;Max_cycle;Signal;HPM_P1;HPM_P2
2021/03/18 00:00:52;;;;;;;;;;;2.10;99.90;;;;;;5074776;28;19908;-67
2021/03/18 00:03:19;;;;;;;;;;;2.00;99.90;;;;;;5072146;28;19916;-67
2021/03/18 00:05:45;;;;;;;;;;;1.90;99.90;;;;;;5073218;28;19909;-68
2021/03/18 00:08:11;;;;;;;;;;;1.80;99.90;;;;;;5076626;28;20137;-68
2021/03/18 00:10:37;;;;;;;;;;;1.60;99.90;;;;;;5076339;28;20042;-67
2021/03/18 00:13:04;;;;;;;;;;;1.60;99.90;;;;;;5076928;28;19951;-68
2021/03/18 00:15:31;;;;;;;;;;;1.60;99.90;;;;;;5075789;28;19927;-67
2021/03/18 00:17:56;;;;;;;;;;;1.50;99.90;;;;;;5075458;28;19955;-68
2021/03/18 00:20:22;;;;;;;;;;;1.60;99.90;;;;;;5075520;28;19917;-67
2021/03/18 00:22:47;;;;;;;;;;;1.60;99.90;;;;;;5069379;28;20277;-67
2021/03/18 00:25:14;;;;;;;;;;;1.70;99.90;;;;;;5070514;28;19928;-67
2021/03/18 00:27:40;;;;;;;;;;;1.70;99.90;;;;;;5052727;28;19908;-69
2021/03/18 00:30:06;;;;;;;;;;;1.70;99.90;;;;;;5070039;28;19967;-70
2021/03/18 00:32:33;;;;;;;;;;;1.70;99.90;;;;;;5070073;28;19919;-70
2021/03/18 00:34:58;;;;;;;;;;;1.70;99.90;;;;;;5079567;28;19946;-68
2021/03/18 00:37:24;;;;;;;;;;;1.80;99.90;;;;;;5080501;28;19908;-68
2021/03/18 00:39:49;;;;;;;;;;;1.80;99.90;;;;;;5080133;28;19923;-68
2021/03/18 00:42:15;;;;;;;;;;;1.80;99.90;;;;;;5080238;28;19908;-68
2021/03/18 00:44:40;;;;;;;;;;;1.80;99.90;;;;;;5078636;28;19920;-68
2021/03/18 00:47:06;;;;;;;;;;;1.80;99.90;;;;;;5077232;28;19962;-68
2021/03/18 00:49:31;;;;;;;;;;;1.90;99.90;;;;;;5073595;28;19916;-67
2021/03/18 00:51:57;;;;;;;;;;;1.90;99.90;;;;;;5077377;28;20245;-68
2021/03/18 00:54:22;;;;;;;;;;;1.90;99.90;;;;;;5077525;28;19909;-68
2021/03/18 00:56:48;;;;;;;;;;;1.90;99.90;;;;;;5070976;28;19909;-70
2021/03/18 00:59:13;;;;;;;;;;;1.90;99.90;;;;;;5070852;28;19920;-68
2021/03/18 01:01:39;;;;;;;;;;;1.90;99.90;;;;;;5070435;28;19943;-68
2021/03/18 01:04:05;;;;;;;;;;;1.90;99.90;;;;;;5073027;28;19915;-68
2021/03/18 01:06:30;;;;;;;;;;;1.90;99.90;;;;;;5072461;28;20007;-68
2021/03/18 01:08:56;;;;;;;;;;;1.90;99.90;;;;;;5071512;28;19956;-68
2021/03/18 01:11:26;;;;;;;;;;;1.80;99.90;;;;;;5073723;28;20283;-68
2021/03/18 01:13:54;;;;;;;;;;;1.70;99.90;;;;;;5077945;28;19909;-68
2021/03/18 01:16:21;;;;;;;;;;;1.70;99.90;;;;;;5074467;28;19917;-68
2021/03/18 01:18:46;;;;;;;;;;;1.70;99.90;;;;;;5076532;28;19912;-68
2021/03/18 01:21:12;;;;;;;;;;;1.60;99.90;;;;;;5071000;28;19916;-68
2021/03/18 01:23:38;;;;;;;;;;;1.50;99.90;;;;;;5069854;28;19908;-68
2021/03/18 01:26:04;;;;;;;;;;;1.50;99.90;;;;;;5069338;28;19908;-68
2021/03/18 01:28:30;;;;;;;;;;;1.40;99.90;;;;;;5069132;28;19974;-68
2021/03/18 01:30:56;;;;;;;;;;;1.40;99.90;;;;;;5068095;28;20452;-68
2021/03/18 01:33:21;;;;;;;;;;;1.40;99.90;;;;;;5069087;28;20141;-68
2021/03/18 01:35:47;;;;;;;;;;;1.50;99.90;;;;;;5069654;28;19982;-68
2021/03/18 01:38:13;;;;;;;;;;;1.40;99.90;;;;;;5069851;28;19912;-68
2021/03/18 01:40:39;;;;;;;;;;;1.40;99.90;;;;;;5069772;28;19981;-68
2021/03/18 01:43:04;;;;;;;;;;;1.40;99.90;;;;;;5068458;28;19952;-68
2021/03/18 01:45:32;;;;;;;;;;;1.30;99.90;;;;;;5068217;28;19932;-68
2021/03/18 01:47:58;;;;;;;;;;;1.30;99.90;;;;;;5068194;28;19918;-68
2021/03/18 01:50:25;;;;;;;;;;;1.30;99.90;;;;;;5068753;28;20365;-68
2021/03/18 01:52:51;;;;;;;;;;;1.30;99.90;;;;;;5068162;28;20447;-68
2021/03/18 01:55:36;;;;;;;;;;;1.40;99.90;;;;;;5068743;28;19912;-68
2021/03/18 01:58:03;;;;;;;;;;;1.50;99.90;;;;;;5068880;28;19920;-68
2021/03/18 02:00:28;;;;;;;;;;;1.60;99.90;;;;;;5067984;28;19913;-68
2021/03/18 02:02:55;;;;;;;;;;;1.60;99.90;;;;;;5067813;28;20278;-68
2021/03/18 02:05:20;;;;;;;;;;;1.70;99.90;;;;;;5068265;28;20360;-68
2021/03/18 02:07:48;;;;;;;;;;;1.60;99.90;;;;;;5068476;28;19915;-68
2021/03/18 02:10:14;;;;;;;;;;;1.60;99.90;;;;;;5049906;28;20377;-68
2021/03/18 02:12:40;;;;;;;;;;;1.60;99.90;;;;;;5067624;28;19922;-68
2021/03/18 02:15:07;;;;;;;;;;;1.60;99.90;;;;;;5067670;28;19912;-68
2021/03/18 02:17:50;;;;;;;;;;;1.60;99.90;;;;;;5067999;28;20331;-68
2021/03/18 02:20:34;;;;;;;;;;;1.60;99.90;;;;;;5068515;28;19918;-68
2021/03/18 02:23:02;;;;;;;;;;;1.60;99.90;;;;;;5067533;28;20095;-67
2021/03/18 02:25:50;;;;;;;;;;;1.70;99.90;;;;;;5068352;28;19928;-68
2021/03/18 02:28:34;;;;;;;;;;;1.70;99.90;;;;;;5066917;28;19909;-68
2021/03/18 02:31:05;;;;;;;;;;;1.70;99.90;;;;;;5067336;28;19912;-68
2021/03/18 02:33:31;;;;;;;;;;;1.90;99.90;;;;;;5067663;28;19913;-67
2021/03/18 02:36:04;;;;;;;;;;;1.90;99.90;;;;;;5067858;28;19909;-68
2021/03/18 02:38:35;;;;;;;;;;;1.90;99.90;;;;;;5067178;28;20049;-68
2021/03/18 02:41:03;;;;;;;;;;;2.10;99.90;;;;;;5068529;28;19919;-68
2021/03/18 02:43:31;;;;;;;;;;;2.10;99.90;;;;;;5071169;28;19913;-68
2021/03/18 02:45:57;;;;;;;;;;;2.10;99.90;;;;;;5071136;28;19909;-68
2021/03/18 02:48:24;;;;;;;;;;;2.10;99.90;;;;;;5071069;28;20042;-68
2021/03/18 02:50:51;;;;;;;;;;;2.20;99.90;;;;;;5071129;28;20012;-68
2021/03/18 02:53:17;;;;;;;;;;;2.10;99.90;;;;;;5070903;28;20257;-68
2021/03/18 02:55:43;;;;;;;;;;;2.20;99.90;;;;;;5071628;28;20265;-68
2021/03/18 02:58:11;;;;;;;;;;;2.20;99.90;;;;;;5070544;28;20007;-68
2021/03/18 03:00:36;;;;;;;;;;;2.10;99.90;;;;;;5070627;28;19909;-68
2021/03/18 03:03:03;;;;;;;;;;;2.20;99.90;;;;;;5070944;28;19917;-68
2021/03/18 03:05:29;;;;;;;;;;;2.10;99.90;;;;;;5071357;28;20594;-68
2021/03/18 03:07:55;;;;;;;;;;;2.10;99.90;;;;;;5070807;28;19912;-68
2021/03/18 03:10:21;;;;;;;;;;;2.10;99.90;;;;;;5071498;28;20014;-68
2021/03/18 03:12:48;;;;;;;;;;;2.10;99.90;;;;;;5070686;28;19915;-68
2021/03/18 03:15:14;;;;;;;;;;;2.10;99.90;;;;;;5070833;28;19912;-68
2021/03/18 03:17:41;;;;;;;;;;;2.10;99.90;;;;;;5071311;28;19912;-68
2021/03/18 03:20:07;;;;;;;;;;;2.10;99.90;;;;;;5071281;28;20314;-67
2021/03/18 03:22:34;;;;;;;;;;;2.10;99.90;;;;;;5070972;28;19952;-68
2021/03/18 03:24:59;;;;;;;;;;;2.10;99.90;;;;;;5070777;28;19955;-67
2021/03/18 03:27:26;;;;;;;;;;;2.20;99.90;;;;;;5071386;28;20307;-68
2021/03/18 03:29:51;;;;;;;;;;;2.20;99.90;;;;;;5070574;28;20036;-68
2021/03/18 03:32:17;;;;;;;;;;;2.10;99.90;;;;;;5069870;28;19912;-68
2021/03/18 03:34:42;;;;;;;;;;;2.10;99.90;;;;;;5070712;28;20234;-68
2021/03/18 03:37:08;;;;;;;;;;;2.10;99.90;;;;;;5071172;28;19921;-68
2021/03/18 03:39:34;;;;;;;;;;;2.10;99.90;;;;;;5070711;28;19913;-68
2021/03/18 03:42:02;;;;;;;;;;;2.10;99.90;;;;;;5069650;28;19913;-68
2021/03/18 03:44:27;;;;;;;;;;;2.10;99.90;;;;;;5070485;28;19913;-68
2021/03/18 03:46:53;;;;;;;;;;;2.10;99.90;;;;;;5069978;28;20271;-68
2021/03/18 03:49:19;;;;;;;;;;;2.10;99.90;;;;;;5070638;28;19908;-68
2021/03/18 03:51:47;;;;;;;;;;;2.10;99.90;;;;;;5069663;28;20400;-68
2021/03/18 03:54:15;;;;;;;;;;;2.20;99.90;;;;;;5069724;28;19912;-68
2021/03/18 03:56:46;;;;;;;;;;;2.10;99.90;;;;;;5070663;28;19990;-68
2021/03/18 03:59:19;;;;;;;;;;;2.10;99.90;;;;;;5070112;28;20292;-68
2021/03/18 04:01:46;;;;;;;;;;;2.10;99.90;;;;;;5068958;28;20385;-68
2021/03/18 04:04:15;;;;;;;;;;;2.10;99.90;;;;;;5070449;28;20005;-68
2021/03/18 04:06:44;;;;;;;;;;;2.10;99.90;;;;;;5070396;28;19916;-68
2021/03/18 04:09:12;;;;;;;;;;;2.10;99.90;;;;;;5069918;28;20073;-68
2021/03/18 04:11:39;;;;;;;;;;;2.10;99.90;;;;;;5069311;28;20338;-68
2021/03/18 04:14:05;;;;;;;;;;;2.10;99.90;;;;;;5069183;28;20008;-69
2021/03/18 04:16:32;;;;;;;;;;;2.10;99.90;;;;;;5068808;28;19908;-68
2021/03/18 04:18:59;;;;;;;;;;;2.10;99.90;;;;;;5069721;28;19912;-68
2021/03/18 04:21:25;;;;;;;;;;;2.10;99.90;;;;;;5068551;28;19944;-68
2021/03/18 04:23:51;;;;;;;;;;;2.00;99.90;;;;;;5069051;28;19916;-68
2021/03/18 04:26:17;;;;;;;;;;;2.00;99.90;;;;;;5069208;28;19970;-68
2021/03/18 04:28:46;;;;;;;;;;;2.00;99.90;;;;;;5069194;28;20030;-68
2021/03/18 04:31:11;;;;;;;;;;;2.00;99.90;;;;;;5068497;28;19954;-68
2021/03/18 04:33:37;;;;;;;;;;;1.90;99.90;;;;;;5069235;28;19912;-68
2021/03/18 04:36:03;;;;;;;;;;;1.80;99.90;;;;;;5069491;28;19908;-68
2021/03/18 04:38:29;;;;;;;;;;;1.80;99.90;;;;;;5068897;28;19928;-68
2021/03/18 04:40:55;;;;;;;;;;;1.80;99.90;;;;;;5068694;28;19915;-68
2021/03/18 04:43:22;;;;;;;;;;;1.80;99.90;;;;;;5069395;28;19913;-68
2021/03/18 04:45:48;;;;;;;;;;;1.80;99.90;;;;;;5069271;28;19908;-68
2021/03/18 04:48:13;;;;;;;;;;;1.80;99.90;;;;;;5068725;28;19932;-68
2021/03/18 04:50:39;;;;;;;;;;;1.80;99.90;;;;;;5068951;28;19909;-68
2021/03/18 04:53:05;;;;;;;;;;;1.90;99.90;;;;;;5068937;28;19913;-69
2021/03/18 04:55:31;;;;;;;;;;;1.80;99.90;;;;;;5069607;28;19915;-69
2021/03/18 04:57:59;;;;;;;;;;;1.80;99.90;;;;;;5068863;28;19913;-69
2021/03/18 05:00:26;;;;;;;;;;;1.80;99.90;;;;;;5067849;28;20113;-69
2021/03/18 05:02:52;;;;;;;;;;;1.70;99.90;;;;;;5068303;28;20274;-68
2021/03/18 05:05:20;;;;;;;;;;;1.60;99.90;;;;;;5068116;28;19915;-68
2021/03/18 05:07:47;;;;;;;;;;;1.60;99.90;;;;;;5069156;28;19960;-68
2021/03/18 05:10:14;;;;;;;;;;;1.50;99.90;;;;;;5068247;28;20349;-69
2021/03/18 05:12:40;;;;;;;;;;;1.40;99.90;;;;;;5068242;28;20265;-69
2021/03/18 05:15:08;;;;;;;;;;;1.30;99.90;;;;;;5067711;28;19920;-68
2021/03/18 05:17:36;;;;;;;;;;;1.20;99.90;;;;;;5068869;28;19912;-69
2021/03/18 05:20:02;;;;;;;;;;;1.20;99.90;;;;;;5068286;28;20029;-68
2021/03/18 05:22:27;;;;;;;;;;;1.10;99.90;;;;;;5068345;28;19947;-68
2021/03/18 05:24:53;;;;;;;;;;;1.00;99.90;;;;;;5068467;28;20282;-68
2021/03/18 05:27:18;;;;;;;;;;;0.90;99.90;;;;;;5069149;28;20215;-68
2021/03/18 05:29:44;;;;;;;;;;;0.90;99.90;;;;;;5068314;28;19909;-68
2021/03/18 05:32:09;;;;;;;;;;;0.80;99.90;;;;;;5067704;28;19912;-68
2021/03/18 05:34:35;;;;;;;;;;;0.80;99.90;;;;;;5068792;28;19915;-68
2021/03/18 05:37:00;;;;;;;;;;;0.80;99.90;;;;;;5068269;28;19912;-68
2021/03/18 05:39:26;;;;;;;;;;;0.70;99.90;;;;;;5067919;28;19913;-68
2021/03/18 05:41:51;;;;;;;;;;;0.80;99.90;;;;;;5067889;28;20050;-68
2021/03/18 05:44:17;;;;;;;;;;;0.90;99.90;;;;;;5068051;28;19915;-68
2021/03/18 05:46:43;;;;;;;;;;;1.20;99.90;;;;;;5067825;28;19917;-68
2021/03/18 05:49:08;;;;;;;;;;;1.70;99.90;;;;;;5068717;28;20262;-68
2021/03/18 05:51:36;;;;;;;;;;;2.10;99.90;;;;;;5067953;28;20004;-68
2021/03/18 05:54:02;;;;;;;;;;;2.50;99.90;;;;;;5067861;28;19908;-68
2021/03/18 05:56:28;;;;;;;;;;;3.10;99.90;;;;;;5068783;28;20288;-68
2021/03/18 05:58:54;;;;;;;;;;;3.60;99.90;;;;;;5066083;28;19935;-69
2021/03/18 06:01:19;;;;;;;;;;;4.20;99.90;;;;;;5064503;28;19924;-69
2021/03/18 06:03:48;;;;;;;;;;;4.60;99.90;;;;;;5067470;28;19999;-69
2021/03/18 06:06:14;;;;;;;;;;;5.10;99.90;;;;;;5067701;28;19923;-69
2021/03/18 06:08:40;;;;;;;;;;;5.60;99.90;;;;;;5067303;28;19916;-69
2021/03/18 06:11:06;;;;;;;;;;;6.10;99.90;;;;;;5067700;28;19912;-69
2021/03/18 06:13:32;;;;;;;;;;;6.60;99.90;;;;;;5067685;28;19959;-69
2021/03/18 06:15:57;;;;;;;;;;;7.20;99.90;;;;;;5069152;28;20396;-69
2021/03/18 06:18:23;;;;;;;;;;;7.90;99.90;;;;;;5070789;28;19919;-68
2021/03/18 06:20:52;;;;;;;;;;;8.60;99.90;;;;;;5070096;28;19970;-68
2021/03/18 06:23:21;;;;;;;;;;;9.50;99.90;;;;;;5066961;28;19919;-70
2021/03/18 06:25:48;;;;;;;;;;;10.00;99.90;;;;;;5041053;28;19928;-71
2021/03/18 06:28:16;;;;;;;;;;;10.70;99.90;;;;;;5058296;28;19912;-69
2021/03/18 06:30:54;;;;;;;;;;;11.40;99.90;;;;;;5064581;28;19923;-69
2021/03/18 06:33:27;;;;;;;;;;;11.90;99.70;;;;;;5065169;28;19924;-68
2021/03/18 06:35:54;;;;;;;;;;;12.70;96.70;;;;;;5055898;28;19920;-68
2021/03/18 06:38:25;;;;;;;;;;;13.30;94.30;;;;;;5054976;28;19970;-68
2021/03/18 06:40:50;;;;;;;;;;;14.00;91.50;;;;;;5070323;28;19909;-67
2021/03/18 06:43:16;;;;;;;;;;;14.40;88.30;;;;;;5068721;28;19996;-68
2021/03/18 06:45:42;;;;;;;;;;;14.60;83.90;;;;;;5071035;28;20349;-68
2021/03/18 06:48:15;;;;;;;;;;;15.10;80.30;;;;;;5066203;28;20380;-67
2021/03/18 06:50:46;;;;;;;;;;;15.60;76.10;;;;;;5058513;28;20406;-68
2021/03/18 06:53:30;;;;;;;;;;;16.20;71.70;;;;;;5059597;28;20046;-67
2021/03/18 06:55:56;;;;;;;;;;;16.80;67.80;;;;;;5065972;28;19916;-68
2021/03/18 06:58:26;;;;;;;;;;;16.80;63.80;;;;;;5065059;28;19943;-69
2021/03/18 07:00:53;;;;;;;;;;;15.30;64.30;;;;;;5064844;28;19948;-69
2021/03/18 07:03:34;;;;;;;;;;;13.90;67.20;;;;;;5065864;28;19982;-68
2021/03/18 07:06:01;;;;;;;;;;;12.30;71.90;;;;;;5067653;28;19989;-68
2021/03/18 07:08:33;;;;;;;;;;;11.50;75.10;;;;;;5063154;28;19920;-68
2021/03/18 07:10:59;;;;;;;;;;;10.50;78.10;;;;;;5060979;28;20032;-68
2021/03/18 07:13:26;;;;;;;;;;;10.70;79.90;;;;;;5064697;28;19995;-68
2021/03/18 07:15:53;;;;;;;;;;;10.20;81.00;;;;;;5063856;28;20019;-67
2021/03/18 07:18:19;;;;;;;;;;;10.20;82.10;;;;;;5054330;28;19931;-68
2021/03/18 07:20:54;;;;;;;;;;;10.20;82.50;;;;;;5064572;28;20582;-68
2021/03/18 07:23:19;;;;;;;;;;;10.90;82.60;;;;;;5056565;28;19920;-68
2021/03/18 07:25:46;;;;;;;;;;;11.20;80.20;;;;;;5057813;28;19912;-69
2021/03/18 07:28:14;;;;;;;;;;;11.70;79.50;;;;;;5056791;28;19912;-68
2021/03/18 07:30:41;;;;;;;;;;;11.40;79.60;;;;;;5059845;28;20003;-68
2021/03/18 07:33:06;;;;;;;;;;;10.90;80.10;;;;;;5055399;28;19912;-68
2021/03/18 07:35:32;;;;;;;;;;;10.30;83.10;;;;;;5052838;28;19912;-67
2021/03/18 07:37:58;;;;;;;;;;;10.10;83.70;;;;;;5058788;28;19985;-68
2021/03/18 07:40:25;;;;;;;;;;;10.00;83.70;;;;;;5058219;28;19987;-67
2021/03/18 07:42:51;;;;;;;;;;;9.60;86.30;;;;;;5060011;28;19916;-67
2021/03/18 07:45:17;;;;;;;;;;;9.10;89.00;;;;;;5063061;28;19924;-70
2021/03/18 07:47:44;;;;;;;;;;;8.60;90.40;;;;;;5063588;28;19921;-67
2021/03/18 07:50:11;;;;;;;;;;;8.10;91.40;;;;;;5060658;28;19990;-68
2021/03/18 07:52:37;;;;;;;;;;;8.00;91.50;;;;;;5057688;28;19916;-68
2021/03/18 07:55:03;;;;;;;;;;;7.60;91.50;;;;;;5049661;28;19971;-68
2021/03/18 07:57:39;;;;;;;;;;;6.70;93.10;;;;;;5063798;28;19939;-68
2021/03/18 08:00:08;;;;;;;;;;;6.70;94.20;;;;;;5061626;28;20691;-68
2021/03/18 08:02:34;;;;;;;;;;;7.70;94.50;;;;;;5063569;28;19921;-68
2021/03/18 08:04:59;;;;;;;;;;;9.20;91.10;;;;;;5055421;28;21485;-68
2021/03/18 08:07:44;;;;;;;;;;;8.90;90.50;;;;;;5054881;28;19978;-68
2021/03/18 08:10:10;;;;;;;;;;;9.00;90.70;;;;;;5063026;28;19970;-67
2021/03/18 08:12:41;;;;;;;;;;;9.90;87.70;;;;;;5057048;28;20385;-68
2021/03/18 08:15:22;;;;;;;;;;;9.30;89.50;;;;;;5055908;28;19916;-68
2021/03/18 08:17:47;;;;;;;;;;;9.30;90.00;;;;;;5061282;28;19912;-68
2021/03/18 08:20:33;;;;;;;;;;;11.00;84.80;;;;;;5057812;28;19920;-68
2021/03/18 08:22:58;;;;;;;;;;;12.30;81.30;;;;;;5062127;28;19912;-69
2021/03/18 08:25:24;;;;;;;;;;;13.40;74.50;;;;;;5055817;28;19920;-68
2021/03/18 08:27:49;;;;;;;;;;;12.30;75.30;;;;;;5065743;28;20003;-68
2021/03/18 08:30:23;;;;;;;;;;;11.90;78.20;;;;;;5049124;28;19913;-68
2021/03/18 08:32:48;;;;;;;;;;;13.10;75.00;;;;;;5062036;28;19928;-68
2021/03/18 08:35:24;;;;;;;;;;;12.60;73.90;;;;;;5057404;28;19943;-68
2021/03/18 08:37:50;;;;;;;;;;;11.70;76.50;;;;;;5056777;28;19924;-68
2021/03/18 08:40:18;;;;;;;;;;;10.80;77.10;;;;;;5058243;28;19917;-68
2021/03/18 08:42:44;;;;;;;;;;;10.20;79.10;;;;;;5052534;28;19972;-67
2021/03/18 08:45:19;;;;;;;;;;;9.90;83.20;;;;;;5058050;28;19920;-68
2021/03/18 08:47:48;;;;;;;;;;;13.40;74.60;;;;;;5057763;28;19923;-67
2021/03/18 08:50:34;;;;;;;;;;;16.80;65.60;;;;;;5059799;28;20672;-68
2021/03/18 08:53:00;;;;;;;;;;;17.10;59.40;;;;;;5047098;28;19951;-68
2021/03/18 08:55:38;;;;;;;;;;;16.10;57.40;;;;;;5064579;28;20357;-68
2021/03/18 08:58:04;;;;;;;;;;;14.60;59.00;;;;;;5055072;28;19912;-68
2021/03/18 09:00:30;;;;;;;;;;;12.80;61.30;;;;;;5062881;28;19931;-68
2021/03/18 09:02:56;;;;;;;;;;;12.20;65.70;;;;;;5064150;28;20492;-67
2021/03/18 09:05:22;;;;;;;;;;;12.00;66.70;;;;;;5056294;28;19913;-67
2021/03/18 09:07:52;;;;;;;;;;;14.00;64.80;;;;;;5051159;28;19982;-68
2021/03/18 09:10:21;;;;;;;;;;;22.10;51.00;;;;;;5056741;28;19913;-69
2021/03/18 09:12:49;;;;;;;;;;;26.30;34.90;;;;;;5067864;28;19909;-68
2021/03/18 09:15:17;;;;;;;;;;;21.90;35.90;;;;;;5067873;28;20306;-68
2021/03/18 09:17:44;;;;;;;;;;;22.30;36.80;;;;;;5068358;28;19936;-68
2021/03/18 09:20:10;;;;;;;;;;;26.60;30.50;;;;;;5068324;28;20003;-68
2021/03/18 09:22:36;;;;;;;;;;;29.30;26.50;;;;;;5064646;28;20399;-68
2021/03/18 09:25:02;;;;;;;;;;;26.40;27.10;;;;;;5057672;28;19924;-68
2021/03/18 09:27:34;;;;;;;;;;;22.70;29.60;;;;;;5061879;28;19916;-68
2021/03/18 09:30:12;;;;;;;;;;;19.50;32.10;;;;;;5051961;28;19957;-68
2021/03/18 09:32:38;;;;;;;;;;;15.90;36.80;;;;;;5060572;28;19912;-68
2021/03/18 09:35:03;;;;;;;;;;;18.70;36.60;;;;;;5063260;28;19921;-68
2021/03/18 09:37:33;;;;;;;;;;;18.70;35.20;;;;;;5056838;28;19916;-68
2021/03/18 09:39:58;;;;;;;;;;;16.60;35.90;;;;;;5058042;28;19920;-68
2021/03/18 09:42:24;;;;;;;;;;;15.50;38.10;;;;;;5056050;28;19913;-68
2021/03/18 09:44:49;;;;;;;;;;;15.20;39.10;;;;;;5057500;28;19925;-68
2021/03/18 09:47:15;;;;;;;;;;;16.60;38.40;;;;;;5049973;28;20350;-68
2021/03/18 09:49:41;;;;;;;;;;;18.20;36.60;;;;;;5055408;28;19936;-70
2021/03/18 09:52:09;;;;;;;;;;;18.50;35.80;;;;;;5054636;28;19952;-67
2021/03/18 09:54:35;;;;;;;;;;;21.20;33.20;;;;;;5055165;28;20388;-69
2021/03/18 09:57:02;;;;;;;;;;;19.00;33.70;;;;;;5056099;28;19921;-70
2021/03/18 09:59:29;;;;;;;;;;;17.70;36.00;;;;;;5061313;28;19971;-68
2021/03/18 10:01:54;;;;;;;;;;;16.50;36.60;;;;;;5064475;28;20322;-68
2021/03/18 10:04:21;;;;;;;;;;;15.70;37.80;;;;;;5065850;28;19913;-69
2021/03/18 10:06:47;;;;;;;;;;;14.80;39.40;;;;;;5065712;28;20306;-70
2021/03/18 10:09:16;;;;;;;;;;;13.80;40.80;;;;;;5063089;28;19916;-70
2021/03/18 10:11:42;;;;;;;;;;;13.10;42.20;;;;;;5061212;28;20423;-70
2021/03/18 10:14:08;;;;;;;;;;;12.40;43.20;;;;;;5064355;28;19970;-68
2021/03/18 10:16:34;;;;;;;;;;;11.80;44.50;;;;;;5066126;28;19916;-67
2021/03/18 10:19:00;;;;;;;;;;;11.40;44.70;;;;;;5060843;28;20356;-68
2021/03/18 10:21:26;;;;;;;;;;;11.10;44.70;;;;;;5065356;28;19913;-68
2021/03/18 10:23:51;;;;;;;;;;;10.80;44.80;;;;;;5065694;28;19920;-67
2021/03/18 10:26:21;;;;;;;;;;;10.80;44.50;;;;;;5066232;28;20003;-67
2021/03/18 10:28:47;;;;;;;;;;;10.40;44.90;;;;;;5067089;28;19957;-67
2021/03/18 10:31:12;;;;;;;;;;;10.10;45.50;;;;;;5060095;28;20349;-67
2021/03/18 10:33:38;;;;;;;;;;;9.60;48.00;;;;;;5050055;28;20435;-67
2021/03/18 10:36:04;;;;;;;;;;;9.30;48.90;;;;;;5061924;28;19920;-67
2021/03/18 10:38:30;;;;;;;;;;;9.30;49.40;;;;;;5055233;28;20262;-68
2021/03/18 10:40:57;;;;;;;;;;;9.50;49.10;;;;;;5049605;28;20045;-68
2021/03/18 10:43:24;;;;;;;;;;;9.80;47.80;;;;;;5057131;28;19921;-68
2021/03/18 10:45:54;;;;;;;;;;;9.80;47.60;;;;;;5048031;28;19917;-68
2021/03/18 10:48:21;;;;;;;;;;;9.90;46.90;;;;;;5051047;28;19917;-68
2021/03/18 10:50:47;;;;;;;;;;;10.00;45.70;;;;;;5062747;28;19936;-68
2021/03/18 10:53:14;;;;;;;;;;;10.20;45.00;;;;;;5054953;28;19972;-68
2021/03/18 10:55:47;;;;;;;;;;;10.60;44.90;;;;;;5063706;28;19927;-68
2021/03/18 10:58:20;;;;;;;;;;;10.60;47.90;;;;;;5057705;28;20384;-70
2021/03/18 11:00:46;;;;;;;;;;;11.80;48.80;;;;;;5058931;28;19916;-68
2021/03/18 11:03:13;;;;;;;;;;;14.20;45.80;;;;;;5055504;28;19970;-68
2021/03/18 11:05:41;;;;;;;;;;;16.40;43.90;;;;;;5059481;28;19988;-69
2021/03/18 11:08:08;;;;;;;;;;;18.20;38.00;;;;;;5059699;28;19924;-69
2021/03/18 11:10:35;;;;;;;;;;;18.70;33.70;;;;;;5058564;28;20235;-69
2021/03/18 11:13:03;;;;;;;;;;;17.50;33.20;;;;;;5058353;28;19932;-69
2021/03/18 11:15:47;;;;;;;;;;;16.00;34.30;;;;;;5063204;28;19913;-69
2021/03/18 11:18:13;;;;;;;;;;;15.10;35.50;;;;;;5064755;28;19920;-69
2021/03/18 11:20:41;;;;;;;;;;;14.00;37.30;;;;;;5063084;28;20543;-69
2021/03/18 11:23:06;;;;;;;;;;;13.00;38.50;;;;;;5052245;28;20047;-71
2021/03/18 11:25:32;;;;;;;;;;;12.10;39.80;;;;;;5058655;28;20015;-69
2021/03/18 11:27:58;;;;;;;;;;;11.70;40.80;;;;;;5058011;28;20392;-69
2021/03/18 11:30:28;;;;;;;;;;;11.20;41.80;;;;;;5060749;28;19921;-71
2021/03/18 11:33:06;;;;;;;;;;;10.80;41.10;;;;;;5058988;28;19939;-69
2021/03/18 11:35:32;;;;;;;;;;;;;;;;;;5062660;28;19912;-69
2021/03/18 11:37:58;;;;;;;;;;;10.20;40.60;;;;;;5052308;28;20322;-68
2021/03/18 11:40:23;;;;;;;;;;;9.90;43.80;;;;;;5060664;28;19917;-69
2021/03/18 11:42:49;;;;;;;;;;;9.60;43.40;;;;;;5058139;28;19916;-69
2021/03/18 11:45:15;;;;;;;;;;;9.50;44.00;;;;;;5047872;28;19921;-69
2021/03/18 11:47:41;;;;;;;;;;;9.50;45.20;;;;;;5068421;28;19981;-69
2021/03/18 11:50:07;;;;;;;;;;;9.60;46.60;;;;;;5068846;28;19912;-68
2021/03/18 11:52:33;;;;;;;;;;;9.60;47.20;;;;;;5049884;28;19919;-69
2021/03/18 11:54:59;;;;;;;;;;;9.70;47.80;;;;;;5052236;28;20266;-69
2021/03/18 11:57:25;;;;;;;;;;;9.60;47.70;;;;;;5057287;28;19919;-68
2021/03/18 11:59:51;;;;;;;;;;;9.60;47.50;;;;;;5061205;28;19960;-69
2021/03/18 12:02:16;;;;;;;;;;;9.50;46.90;;;;;;5060326;28;20407;-68
2021/03/18 12:04:42;;;;;;;;;;;9.50;46.60;;;;;;5057498;28;19925;-69
2021/03/18 12:07:07;;;;;;;;;;;9.40;47.30;;;;;;5052537;28;20519;-69
2021/03/18 12:09:33;;;;;;;;;;;9.60;48.00;;;;;;5058522;28;19995;-71
2021/03/18 12:11:58;;;;;;;;;;;9.60;47.40;;;;;;5061269;28;19917;-70
2021/03/18 12:14:24;;;;;;;;;;;9.70;47.80;;;;;;5059677;28;19913;-69
2021/03/18 12:16:49;;;;;;;;;;;9.90;47.90;;;;;;5066545;28;19913;-69
2021/03/18 12:19:15;;;;;;;;;;;9.80;47.30;;;;;;5067590;28;19916;-69
2021/03/18 12:21:40;;;;;;;;;;;9.80;48.90;;;;;;5052641;28;20012;-69
2021/03/18 12:24:06;;;;;;;;;;;9.90;48.20;;;;;;5061310;28;19960;-69
2021/03/18 12:26:32;;;;;;;;;;;9.80;48.60;;;;;;5053103;28;20263;-69
2021/03/18 12:28:57;;;;;;;;;;;9.80;49.50;;;;;;5056206;28;19923;-68
2021/03/18 12:31:23;;;;;;;;;;;10.10;47.60;;;;;;5060633;28;19924;-69
2021/03/18 12:33:48;;;;;;;;;;;10.10;46.80;;;;;;5054207;28;19916;-68
2021/03/18 12:36:14;;;;;;;;;;;10.10;46.30;;;;;;5059367;28;19967;-68
2021/03/18 12:38:39;;;;;;;;;;;10.20;45.80;;;;;;5057893;28;19912;-69
2021/03/18 12:41:05;;;;;;;;;;;10.40;46.20;;;;;;5057737;28;19923;-68
2021/03/18 12:43:30;;;;;;;;;;;10.40;45.70;;;;;;5061697;28;19995;-69
2021/03/18 12:45:56;;;;;;;;;;;10.60;45.50;;;;;;5066047;28;20292;-69
2021/03/18 12:48:22;;;;;;;;;;;10.50;44.60;;;;;;5050398;28;20301;-68
2021/03/18 12:50:48;;;;;;;;;;;10.40;41.90;;;;;;5061784;28;19912;-69
2021/03/18 12:53:13;;;;;;;;;;;10.70;42.90;;;;;;5064113;28;19932;-69
2021/03/18 12:55:39;;;;;;;;;;;10.90;41.70;;;;;;5057694;28;20031;-69
2021/03/18 12:58:04;;;;;;;;;;;11.20;41.80;;;;;;5065216;28;19970;-69
2021/03/18 13:00:32;;;;;;;;;;;11.20;41.30;;;;;;5062159;28;20296;-69
2021/03/18 13:02:57;;;;;;;;;;;11.40;41.00;;;;;;5059093;28;19917;-69
2021/03/18 13:05:23;;;;;;;;;;;11.40;40.90;;;;;;5060436;28;19918;-69
2021/03/18 13:07:49;;;;;;;;;;;11.50;40.90;;;;;;5052218;28;19917;-70
2021/03/18 13:10:15;;;;;;;;;;;11.50;41.40;;;;;;5049831;28;19971;-70
2021/03/18 13:12:41;;;;;;;;;;;11.90;41.80;;;;;;5051040;28;19962;-69
2021/03/18 13:15:07;;;;;;;;;;;12.30;41.60;;;;;;5055636;28;19916;-68
2021/03/18 13:17:33;;;;;;;;;;;12.70;41.70;;;;;;5063729;28;19917;-68
2021/03/18 13:19:58;;;;;;;;;;;12.90;40.70;;;;;;5059279;28;19923;-68
2021/03/18 13:22:24;;;;;;;;;;;13.00;41.10;;;;;;5062769;28;19912;-68
2021/03/18 13:24:50;;;;;;;;;;;12.90;40.60;;;;;;5038781;28;19917;-68
2021/03/18 13:27:15;;;;;;;;;;;12.40;41.10;;;;;;5059003;28;19921;-68
2021/03/18 13:29:41;;;;;;;;;;;12.00;41.00;;;;;;5050449;28;19919;-68
2021/03/18 13:32:06;;;;;;;;;;;11.70;39.40;;;;;;5056583;28;20007;-71
2021/03/18 13:34:32;;;;;;;;;;;11.60;38.20;;;;;;5062540;28;20000;-70
2021/03/18 13:36:57;;;;;;;;;;;11.40;38.90;;;;;;5057345;28;19999;-69
2021/03/18 13:39:23;;;;;;;;;;;11.30;39.20;;;;;;5062983;28;19917;-70
2021/03/18 13:41:48;;;;;;;;;;;11.00;40.10;;;;;;5055595;28;19955;-70
2021/03/18 13:44:14;;;;;;;;;;;10.50;41.40;;;;;;5057532;28;19912;-70
2021/03/18 13:46:39;;;;;;;;;;;10.40;43.70;;;;;;5062582;28;19962;-70
2021/03/18 13:49:05;;;;;;;;;;;10.00;45.70;;;;;;5057496;28;19912;-70
2021/03/18 13:51:30;;;;;;;;;;;9.80;47.40;;;;;;5055888;28;19923;-70
2021/03/18 13:53:56;;;;;;;;;;;9.70;46.70;;;;;;5064320;28;19909;-69
2021/03/18 13:56:22;;;;;;;;;;;9.50;46.60;;;;;;5058233;28;19920;-70
2021/03/18 13:58:48;;;;;;;;;;;9.40;46.10;;;;;;5059192;28;19921;-70
2021/03/18 14:01:14;;;;;;;;;;;9.20;46.30;;;;;;5056831;28;19977;-70
2021/03/18 14:03:40;;;;;;;;;;;9.20;48.30;;;;;;5058357;28;19913;-70
2021/03/18 14:06:06;;;;;;;;;;;9.10;48.10;;;;;;5058991;28;20479;-70
2021/03/18 14:08:32;;;;;;;;;;;9.00;47.70;;;;;;5060955;28;19918;-70
2021/03/18 14:10:57;;;;;;;;;;;8.90;47.40;;;;;;5052916;28;20460;-69
2021/03/18 14:13:23;;;;;;;;;;;8.90;47.30;;;;;;5057383;28;19927;-69
2021/03/18 14:15:48;;;;;;;;;;;8.80;46.30;;;;;;5058636;28;19916;-69
2021/03/18 14:18:14;;;;;;;;;;;8.80;47.50;;;;;;5052232;28;19912;-70
2021/03/18 14:20:41;;;;;;;;;;;8.90;46.70;;;;;;5056682;28;19912;-69
2021/03/18 14:23:07;;;;;;;;;;;9.10;48.40;;;;;;5059668;28;19999;-69
2021/03/18 14:25:33;;;;;;;;;;;9.30;49.80;;;;;;5066513;28;19924;-69